РПИ Москва

Региональный центр Единой системы организации воздушного движения VATSIM Москва отвечает за полеты воздушных судов над большей частью территории центральной России на общей площади более 700 тысяч квадратных километров – от Рыбинского водохранилища до Воронежа и Белгорода с севера на юг и от границы с Беларусью до Нижнего Новгорода с запада на восток.

Ежедневно в зоне ответственности Московского центра выполняются тысячи полетов, в том числе множество международных транзитных рейсов.

Общая протяженность воздушных трасс составляет более 35000 км, а количество различных аэродромов гражданской и ведомственной авиации насчитывает более 100.

Московский узловой диспетчерский район (МУДР), также находящийся на территории регионального центра, включает в себя три крупнейших аэропорта России – московские Шереметьево, Внуково и Домодедово.

Это самое сложное и загруженное воздушное пространство России и СНГ. Московские аэропорты имеют схемы Point Merge System, упрощающие построение очередности захода на посадку, а наличие большого количество запретных зон и зон ограничений полетов требует от диспетчеров высокого уровня подготовки.

В реальной жизни за обеспечение безопасности полетов на этой огромной территории несут ответственность 27 секторов районного диспетчерского центра и 22 сектора Подхода и Круга аэроузлового диспетчерского центра. На вышках дежурят диспетчеры 11 аэродромных диспетчерских центров, управляющие самолетами на взлете и посадке.

В VATSIM мы также имеем возможность разъединять при необходимости различные сектора.

Используйте интерактивную карту по ссылке в ваших полетах, если видите в работе несколько позиций Москва-Контроль.

С 2020 года западная часть территории России, в том числе Москва, перешла на выполнение полетов на высотах в футах по давлению QNH. В МУДР установлена единая высота перехода для всех аэродромов 10000 футов, а эшелон перехода меняется от FL110 до FL130 в зависимости от QNH аэродрома Внуково, как самого высокорасположенного.

Помимо аэропортов «московской тройки», в МУДР находятся аэродромы государственной и экспериментальной авиации, такие как Остафьево, Раменское, Чкаловский.

Малая авиация выполняет полеты с бесчисленного множества аэродромов и посадочных площадок. Многие из них хорошо реализованы. На нашей карте вы найдете ссылки на сценарии для различных симуляторов.

Для симулятора X-Plane 11 команда x-flight подготовила прекрасную фотоподложку, покрывающую почти весь МУДР. Найти ее вы можете по ссылке.

Для любителей симуляторов от Lockheed Martin и Microsoft существуют также дополнения Moscow City X для Prepar3D всех версий и Moscow Landmarks для MSFS.

В районе ответственности регионального центра находятся еще восемь международных аэропортов: Нижний Новгород, Воронеж, Белгород, Ярославль, Брянск, Калуга, Курск и Липецк.

Лого Москва
Руководство

Ivan Skatov

Начальник РегЦ ЕС ОрВД (Москва)

Ilya Pyankov

Начальник АузДЦ ЕС ОрВД (Москва)
Контакты

Инструкторы РПИ
Alexander Petrenko (Instructor)
Alexey Dobronravov (Instructor)
Anton Myglan (Senior Instructor)
Artem Smorchkov (Instructor)
Dmitry Markus (Instructor)
Ilya Pyankov (Instructor)
Ivan Buev * (Controller)
Ivan Skatov (Instructor)
Matvey Safyannikov (Instructor)
Maxim Tsygankov (Instructor)
Yulia Goryacheva (Instructor)
Входит в состав
Западная Россия

Диспетчеры РПИ

Диспетчер Рейтинг Допуски *
Alexander Petrenko Instructor UUWV_CTR
Alexey Dobronravov Instructor UUWV_CTR
Artem Smorchkov Instructor UUWV_CTR
Dmitry Markus Instructor UUWV_CTR
George Kalandadze Controller UUWV_CTR
Ivan Buev Controller UUWV_CTR
Ivan Skatov Instructor UUWV_CTR
Karim Garifullin Controller UUWV_CTR
Masha Stanchenko Controller UUWV_CTR
Maxim Tsygankov Instructor UUWV_CTR
Nick Smirnov Senior Student UUWV_CTR  *, MSK_APP(UUEE+UUDD+UUWW)
Robert Farber Controller UUWV_CTR
Sergey Kovalenko Controller UUWV_CTR
Vladimir Anisimov Controller UUWV_CTR
Vyacheslav Neklyudov Senior Student UUWV_CTR  *
Yulia Goryacheva Instructor UUWV_CTR
Yury Koryagin Instructor UUWV_CTR
Aleksandr Lysenko Student UUWW_TWR*, UUWW_GND
Alex Sapuck Student UUDD_GND
Alexander Mikhin Student 2 UUDD_TWR, UUWW_APP*, UUWW_DEP*, UUWW_F_APP*
Alexsey Gorbunov Unknown UUDD_GND
Anton Beshenov Student UUEE_N_GND, UUEE_S_GND, UUEE_GND
Artem Morozov Student 2 UUDD_APP*, UUDD_DEP*, UUDD_F_APP*, UUEE_N_TWR, UUEE_S_TWR, UUEE_TWR
Arteom Alexeev Student UUEE_S_GND, UUEE_GND, UUEE_N_GND
Bogdan Mavrodiev Student UUDD_GND
Daniil Voinov Senior Student MSK_APP(UUEE+UUWW+UUDD)
Danil Basharov Student 2 UUDD_APP*, UUDD_DEP*, UUDD_TWR, UUDD_F_APP*
Egor Goriachev Student 2 UUEE_GND, UUEE_S_TWR*, UUEE_TWR*, UUEE_N_GND, UUEE_N_TWR*, UUEE_S_GND
Gleb Ishmuratov Student UUDD_GND
Gleb Smolkov Student 2 UUEE_TWR, UUEE_F_APP*, UUEE_APP*, UUEE_N_TWR, UUEE_DEP*, UUEE_S_TWR
Ignat Aligov Student UUWW_GND
Ivan Baranov Student UUEE_N_GND, UUEE_S_GND, UUEE_GND
Ivan Piskovsky Unknown UUWW_GND
Kirill Kudryavtsev Student UUWW_GND
Kirill Ryabov Student 2 UUEE_F_APP*, UUEE_APP*, UUEE_DEP*
Mark Brenden Student UUDD_GND
Maxim Kalalenskiy Student UUWW_TWR*, UUWW_GND
Maxim Khromtsov Controller MSK_APP(UUEE+UUDD+UUWW)
Michael Loyuk Senior Student MSK_APP(UUDD+UUWW+UUEE)
Mihail Mihailov Senior Student MSK_APP(UUEE+UUWW+UUDD)
Nikita Levin Student 2 UUEE_DEP*, UUEE_F_APP*, UUEE_APP*, UUWW_TWR
Nikolay Klemenchev Student UUWW_GND
Pavel Moskvin Student UUWW_GND
Pavel Sergienko Student 2 UUML_TWR
Petr Koreshkov Student UUEE_S_GND, UUEE_GND, UUEE_N_GND
Sergey Isaev Student 2 UUEE_DEP*, UUEE_S_TWR, UUEE_F_APP*, UUEE_TWR, UUEE_APP*, UUEE_N_TWR
Stanley Yorke Controller UUBW_APP, UUWW_F_APP, UUWW_APP, UUWW_DEP
Vladimir Kon Student UUDD_GND
Yury Kompaniychenko Student 2 UUML_TWR!!!

Аэропорты РПИ

ICAO Город Название Погода
UUWW Москва Внуково UUWW 100800Z 08002MPS 0900 0600SE R06/1200U FZFG VV001 M02/M03 Q1013 R06/520245 TEMPO 0500 FZFG RMK QBB040
UUDD Москва Домодедово UUDD 100800Z 11002MPS 050V160 0500 0250SW R14R/0600U FZFG VV001 M02/M03 Q1013 R14R/520237 NOSIG RMK QBB050
UUBW Москва Жуковский UUBW 100800Z 08002MPS 0650 0550SE R30/0600N FZFG VV001 M02/M02 Q1014 R30/420242 NOSIG RMK QBB050
UUMU Москва Чкаловский
UUEE Москва Шереметьево UUEE 100800Z 08004MPS 3400 BR OVC014 M03/M04 Q1013 R06R/410245 R06C/410245 NOSIG
UUOB Белгород Белгород UUOB 100800Z 15004MPS 0100 R11/M0200N FG VV000 02/02 Q1014 R11/820335 NOSIG RMK QBB010
UUBP Брянск Брянск UUBP 100800Z 10003MPS 1700 BR OVC001 ///008 00/00 Q1011 R16/////// NOSIG RMK QBB050 QFE740/0987
UUOO Воронеж Воронеж UUOO 100800Z 15005MPS 3200 BR OVC003 00/00 Q1016 R12/591032 NOSIG RMK QFE748
UUBI Иваново Иваново
UUBC Калуга Калуга UUBC 100800Z VRB01MPS 0250 0200NW R31/0500N FZFG VV002 M01/M01 Q1012 R31/420138 NOSIG RMK QBB070 QFE742/0990
UUOK Курск Курск UUOK 100800Z 15005MPS 0300 R12/0350N FG VV001 01/01 Q1013 R12/////// NOSIG RMK QBB040 QFE742/0989
UUMO Москва Остафьево UUMO 100800Z 09002MPS 2700 BR OVC003 M03/M03 Q1013 R07/590338 NOSIG RMK QBB090 QFE745/0994
UWGG Нижний Новгород Стригино UWGG 100800Z 17003MPS 9999 OVC013 M03/M04 Q1018 R18L/450134 NOSIG
UUDL Ярославль Туношна UUDL 100800Z 09002MPS 9999 SCT004 OVC012 M05/M05 Q1016 R23/490540 NOSIG RMK QBB120 QFE753
UUMW Ватулино Ватулино
UUML Воскресенск Северка